Time;durP1;ratioP1;P1;durP2;ratioP2;P2;SDS_P1;SDS_P2;PMS_P1;PMS_P2;Temp;Humidity;BMP_temperature;BMP_pressure;BME280_temperature;BME280_humidity;BME280_pressure;Samples;Min_cycle;Max_cycle;Signal;HPM_P1;HPM_P2
2022/08/08 00:00:58;;;;;;;0.40;0.40;;;13.50;99.90;;;;;;4963986;28;21012;-78
2022/08/08 00:03:57;;;;;;;0.40;0.40;;;13.60;99.90;;;;;;4969590;28;20046;-78
2022/08/08 00:06:47;;;;;;;0.40;0.40;;;13.50;99.90;;;;;;4970000;28;20057;-79
2022/08/08 00:09:33;;;;;;;0.40;0.40;;;13.60;99.90;;;;;;4980171;28;20050;-79
2022/08/08 00:12:02;;;;;;;0.40;0.40;;;13.60;99.90;;;;;;4974411;28;20046;-78
2022/08/08 00:14:52;;;;;;;0.40;0.40;;;13.60;99.90;;;;;;4969773;28;20055;-78
2022/08/08 00:17:29;;;;;;;0.43;0.43;;;13.60;99.90;;;;;;4969425;28;20042;-78
2022/08/08 00:20:05;;;;;;;0.40;0.40;;;13.50;99.90;;;;;;4970406;28;20050;-78
2022/08/08 00:22:53;;;;;;;0.50;0.50;;;13.30;99.90;;;;;;4969874;28;20054;-78
2022/08/08 00:25:37;;;;;;;0.40;0.40;;;13.20;99.90;;;;;;4983768;28;20080;-79
2022/08/08 00:28:04;;;;;;;;;;;13.10;99.90;;;;;;4969521;28;20046;-78
2022/08/08 00:30:39;;;;;;;0.40;0.40;;;12.90;99.90;;;;;;4971047;28;19926;-78
2022/08/08 00:33:14;;;;;;;0.50;0.50;;;12.80;99.90;;;;;;4970867;28;20052;-78
2022/08/08 00:36:03;;;;;;;0.40;0.40;;;12.80;99.90;;;;;;4969060;28;20081;-78
2022/08/08 00:38:50;;;;;;;0.40;0.40;;;12.70;99.90;;;;;;4962822;28;20058;-78
2022/08/08 00:41:43;;;;;;;0.40;0.40;;;12.60;99.90;;;;;;4969994;28;20984;-78
2022/08/08 00:44:30;;;;;;;0.40;0.40;;;12.60;99.90;;;;;;4969118;28;20137;-78
2022/08/08 00:47:18;;;;;;;0.40;0.40;;;12.60;99.90;;;;;;4989855;28;20303;-78
2022/08/08 00:50:06;;;;;;;0.40;0.40;;;12.50;99.90;;;;;;4982703;28;20046;-78
2022/08/08 00:53:06;;;;;;;0.40;0.40;;;12.40;99.90;;;;;;4974396;28;20046;-79
2022/08/08 00:56:00;;;;;;;0.40;0.40;;;12.30;99.90;;;;;;4975929;28;20058;-79
2022/08/08 00:58:42;;;;;;;0.40;0.40;;;12.40;99.90;;;;;;4976053;28;20939;-79
2022/08/08 01:01:32;;;;;;;0.40;0.40;;;12.30;99.90;;;;;;4972670;28;20198;-79
2022/08/08 01:04:29;;;;;;;0.52;0.50;;;12.30;99.90;;;;;;4974891;28;20050;-79
2022/08/08 01:07:33;;;;;;;0.40;0.40;;;12.30;99.90;;;;;;4971732;28;20049;-79
2022/08/08 01:10:11;;;;;;;0.50;0.50;;;12.50;99.90;;;;;;4970677;28;20049;-79
2022/08/08 01:12:45;;;;;;;0.50;0.50;;;12.60;99.90;;;;;;4976342;28;20073;-79
2022/08/08 01:15:42;;;;;;;0.40;0.40;;;12.60;99.90;;;;;;4974328;28;20046;-79
2022/08/08 01:18:32;;;;;;;0.40;0.40;;;12.30;99.90;;;;;;4970861;28;20448;-79
2022/08/08 01:21:29;;;;;;;0.40;0.40;;;12.10;99.90;;;;;;4972218;28;20145;-79
2022/08/08 01:24:07;;;;;;;0.40;0.40;;;12.20;99.90;;;;;;4977861;28;20100;-78
2022/08/08 01:27:06;;;;;;;0.40;0.40;;;12.30;99.90;;;;;;4973164;28;20089;-79
2022/08/08 01:29:47;;;;;;;0.40;0.40;;;12.30;99.90;;;;;;4972724;28;20069;-79
2022/08/08 01:32:50;;;;;;;0.40;0.40;;;12.20;99.90;;;;;;4973222;28;20078;-79
2022/08/08 01:36:00;;;;;;;0.40;0.40;;;12.40;99.90;;;;;;4971064;28;20532;-79
2022/08/08 01:38:51;;;;;;;0.40;0.40;;;12.30;99.90;;;;;;4936814;28;20042;-78
2022/08/08 01:41:32;;;;;;;0.40;0.40;;;12.10;99.90;;;;;;4934177;28;20054;-79
2022/08/08 01:44:20;;;;;;;0.50;0.50;;;12.10;99.90;;;;;;4961471;28;20054;-79
2022/08/08 01:47:09;;;;;;;0.40;0.40;;;12.10;99.90;;;;;;4972339;28;20386;-79
2022/08/08 01:50:03;;;;;;;0.47;0.47;;;12.10;99.90;;;;;;4977514;28;20129;-79
2022/08/08 01:52:44;;;;;;;0.40;0.40;;;12.10;99.90;;;;;;4970963;28;20122;-79
2022/08/08 01:55:13;;;;;;;0.50;0.50;;;12.20;99.90;;;;;;4979056;28;20054;-79
2022/08/08 01:58:00;;;;;;;0.40;0.40;;;12.30;99.90;;;;;;4972535;28;20062;-78
2022/08/08 02:00:42;;;;;;;0.40;0.40;;;12.40;99.90;;;;;;4972117;28;20045;-78
2022/08/08 02:03:10;;;;;;;0.40;0.40;;;12.20;99.90;;;;;;4971477;28;20667;-79
2022/08/08 02:06:01;;;;;;;0.40;0.40;;;11.80;99.90;;;;;;4974147;28;20060;-79
2022/08/08 02:08:45;;;;;;;0.40;0.40;;;11.50;99.90;;;;;;4973715;28;20096;-78
2022/08/08 02:11:30;;;;;;;0.40;0.40;;;11.60;99.90;;;;;;4983815;28;20761;-79
2022/08/08 02:14:07;;;;;;;0.52;0.52;;;11.90;99.90;;;;;;4973968;28;20129;-78
2022/08/08 02:17:03;;;;;;;0.40;0.40;;;11.70;99.90;;;;;;4970195;28;20460;-79
2022/08/08 02:19:41;;;;;;;0.40;0.40;;;11.60;99.90;;;;;;4972884;28;20618;-79
2022/08/08 02:22:30;;;;;;;0.50;0.50;;;11.60;99.90;;;;;;4971416;28;20268;-78
2022/08/08 02:25:18;;;;;;;0.40;0.40;;;11.60;99.90;;;;;;4973825;28;20045;-79
2022/08/08 02:27:52;;;;;;;0.50;0.50;;;11.60;99.90;;;;;;4971086;28;20092;-79
2022/08/08 02:30:41;;;;;;;0.40;0.40;;;11.80;99.90;;;;;;4975449;28;20053;-79
2022/08/08 02:33:43;;;;;;;0.40;0.40;;;12.00;99.90;;;;;;4971452;28;20041;-79
2022/08/08 02:36:23;;;;;;;0.50;0.50;;;12.20;99.90;;;;;;4972375;28;20119;-79
2022/08/08 02:39:16;;;;;;;0.40;0.40;;;12.30;99.90;;;;;;4970595;28;20173;-79
2022/08/08 02:42:09;;;;;;;0.40;0.40;;;12.40;99.90;;;;;;4971216;28;20100;-79
2022/08/08 02:44:59;;;;;;;0.52;0.45;;;12.30;99.90;;;;;;4973739;28;20576;-79
2022/08/08 02:47:47;;;;;;;0.73;0.73;;;12.40;99.90;;;;;;4973302;28;20052;-79
2022/08/08 02:50:52;;;;;;;0.40;0.40;;;12.40;99.90;;;;;;4970702;28;20046;-79
2022/08/08 02:53:55;;;;;;;0.40;0.40;;;12.50;99.90;;;;;;4971308;28;20042;-79
2022/08/08 02:56:59;;;;;;;0.52;0.50;;;12.50;99.90;;;;;;4973956;28;20058;-78
2022/08/08 03:00:05;;;;;;;0.40;0.40;;;12.50;99.90;;;;;;4963341;28;20050;-78
2022/08/08 03:02:53;;;;;;;0.40;0.40;;;12.40;99.90;;;;;;4963298;28;20050;-79
2022/08/08 03:05:37;;;;;;;0.40;0.40;;;12.40;99.90;;;;;;4956168;28;20057;-79
2022/08/08 03:08:21;;;;;;;0.40;0.40;;;12.20;99.90;;;;;;4963848;28;20050;-78
2022/08/08 03:11:05;;;;;;;0.40;0.40;;;11.90;99.90;;;;;;4958090;28;20112;-79
2022/08/08 03:13:53;;;;;;;0.40;0.40;;;11.70;99.90;;;;;;4961904;28;20482;-78
2022/08/08 03:16:54;;;;;;;0.63;0.50;;;11.60;99.90;;;;;;4959781;28;20046;-79
2022/08/08 03:19:37;;;;;;;0.40;0.40;;;11.50;99.90;;;;;;4964469;28;20483;-78
2022/08/08 03:22:02;;;;;;;0.40;0.40;;;11.50;99.90;;;;;;4958038;28;20105;-79
2022/08/08 03:24:28;;;;;;;0.40;0.40;;;11.60;99.90;;;;;;4956902;28;20180;-78
2022/08/08 03:27:40;;;;;;;0.40;0.40;;;11.60;99.90;;;;;;4962229;28;20046;-79
2022/08/08 03:30:09;;;;;;;0.50;0.50;;;11.60;99.90;;;;;;4964112;28;20066;-78
2022/08/08 03:35:22;;;;;;;0.40;0.40;;;11.50;99.90;;;;;;4956868;28;20053;-79
2022/08/08 03:37:48;;;;;;;0.50;0.50;;;11.50;99.90;;;;;;4959222;28;20046;-79
2022/08/08 03:40:16;;;;;;;0.40;0.40;;;11.50;99.90;;;;;;4953751;28;20520;-78
2022/08/08 03:42:42;;;;;;;0.40;0.40;;;11.60;99.90;;;;;;4960183;28;20050;-79
2022/08/08 03:45:24;;;;;;;0.43;0.43;;;11.60;99.90;;;;;;4957607;28;20053;-79
2022/08/08 03:48:08;;;;;;;0.50;0.50;;;11.50;99.90;;;;;;4958686;28;20512;-79
2022/08/08 03:50:47;;;;;;;0.50;0.50;;;11.50;99.90;;;;;;4960847;28;20548;-79
2022/08/08 03:53:16;;;;;;;0.50;0.50;;;11.50;99.90;;;;;;4960800;28;20053;-79
2022/08/08 03:55:45;;;;;;;0.50;0.50;;;11.50;99.90;;;;;;4959419;28;20053;-78
2022/08/08 03:58:21;;;;;;;0.43;0.43;;;11.60;99.90;;;;;;4945551;28;20062;-79
2022/08/08 04:00:51;;;;;;;0.40;0.40;;;11.90;99.90;;;;;;4964045;28;20061;-79
2022/08/08 04:03:17;;;;;;;0.43;0.43;;;11.90;99.90;;;;;;4950670;28;20110;-79
2022/08/08 04:05:43;;;;;;;0.40;0.40;;;11.90;99.90;;;;;;4958211;28;20042;-79
2022/08/08 04:08:22;;;;;;;0.40;0.40;;;11.90;99.90;;;;;;4955243;28;20056;-79
2022/08/08 04:10:49;;;;;;;0.40;0.40;;;12.00;99.90;;;;;;4959260;28;20785;-78
2022/08/08 04:13:16;;;;;;;0.40;0.40;;;12.00;99.90;;;;;;4963936;28;20130;-79
2022/08/08 04:15:43;;;;;;;0.40;0.40;;;12.00;99.90;;;;;;4956704;28;20057;-79
2022/08/08 04:18:09;;;;;;;0.50;0.50;;;12.00;99.90;;;;;;4959712;28;20064;-78
2022/08/08 04:20:35;;;;;;;2.25;0.70;;;12.00;99.90;;;;;;4962579;28;20038;-78
2022/08/08 04:23:01;;;;;;;0.40;0.40;;;11.70;99.90;;;;;;4961896;28;21368;-78
2022/08/08 04:25:26;;;;;;;0.57;0.57;;;11.60;99.90;;;;;;4963031;28;20050;-79
2022/08/08 04:27:52;;;;;;;0.60;0.60;;;11.60;99.90;;;;;;4960790;28;20061;-79
2022/08/08 04:30:18;;;;;;;0.40;0.40;;;11.50;99.90;;;;;;4961567;28;20062;-78
2022/08/08 04:32:44;;;;;;;0.40;0.40;;;11.60;99.90;;;;;;4969621;28;20038;-78
2022/08/08 04:35:10;;;;;;;0.50;0.50;;;11.60;99.90;;;;;;4958778;28;20959;-78
2022/08/08 04:37:35;;;;;;;0.50;0.50;;;11.70;99.90;;;;;;4975773;28;20060;-78
2022/08/08 04:40:02;;;;;;;0.55;0.55;;;11.60;99.90;;;;;;4958084;28;20046;-78
2022/08/08 04:42:32;;;;;;;0.40;0.40;;;11.50;99.90;;;;;;4976609;28;20054;-78
2022/08/08 04:45:01;;;;;;;0.40;0.40;;;11.60;99.90;;;;;;4973797;28;20050;-78
2022/08/08 04:47:27;;;;;;;0.40;0.40;;;11.60;99.90;;;;;;4971015;28;20041;-78
2022/08/08 04:49:53;;;;;;;0.40;0.40;;;11.60;99.90;;;;;;4976730;28;20829;-78
2022/08/08 04:52:19;;;;;;;0.40;0.40;;;11.60;99.90;;;;;;4976552;28;20049;-78
2022/08/08 04:54:45;;;;;;;0.40;0.40;;;11.60;99.90;;;;;;4976291;28;20061;-78
2022/08/08 04:57:11;;;;;;;0.40;0.40;;;11.70;99.90;;;;;;4992099;28;20050;-79
2022/08/08 04:59:37;;;;;;;0.40;0.40;;;11.90;99.90;;;;;;4975993;28;20061;-79
2022/08/08 05:02:03;;;;;;;0.40;0.40;;;12.00;99.90;;;;;;4972547;28;20127;-78
2022/08/08 05:04:29;;;;;;;0.50;0.50;;;11.90;99.90;;;;;;4987440;28;21262;-78
2022/08/08 05:06:55;;;;;;;0.40;0.40;;;12.00;99.90;;;;;;4972333;28;20072;-78
2022/08/08 05:09:21;;;;;;;0.40;0.40;;;12.00;99.90;;;;;;4978643;28;20089;-78
2022/08/08 05:11:48;;;;;;;0.40;0.40;;;12.50;99.90;;;;;;4972743;28;20042;-79
2022/08/08 05:14:14;;;;;;;0.50;0.50;;;14.10;99.90;;;;;;4976913;28;21041;-78
2022/08/08 05:16:41;;;;;;;0.40;0.40;;;15.60;99.90;;;;;;4978418;28;20497;-78
2022/08/08 05:19:13;;;;;;;0.50;0.50;;;16.90;99.90;;;;;;4973785;28;20414;-78
2022/08/08 05:21:43;;;;;;;0.40;0.40;;;18.00;99.90;;;;;;4975450;28;20050;-78
2022/08/08 05:24:09;;;;;;;0.30;0.30;;;18.90;99.90;;;;;;4978020;28;20057;-78
2022/08/08 05:26:37;;;;;;;0.38;0.38;;;19.50;99.90;;;;;;4980059;28;20061;-78
2022/08/08 05:29:07;;;;;;;0.40;0.40;;;20.30;99.90;;;;;;4976019;28;20062;-79
2022/08/08 05:31:34;;;;;;;0.32;0.32;;;20.70;99.90;;;;;;4974269;28;20257;-78
2022/08/08 05:34:02;;;;;;;0.38;0.38;;;20.90;99.90;;;;;;4982418;28;20512;-79
2022/08/08 05:36:33;;;;;;;0.30;0.30;;;21.40;99.90;;;;;;4967819;28;20157;-79
2022/08/08 05:39:01;;;;;;;2.30;1.38;;;21.50;99.90;;;;;;4975568;28;20050;-79
2022/08/08 05:41:27;;;;;;;0.43;0.43;;;21.80;99.90;;;;;;4974107;28;20049;-78
2022/08/08 05:44:11;;;;;;;0.60;0.60;;;22.20;99.90;;;;;;4973873;28;20057;-79
2022/08/08 05:46:39;;;;;;;0.40;0.40;;;22.50;99.90;;;;;;4972605;28;20540;-78
2022/08/08 05:49:06;;;;;;;0.38;0.38;;;22.50;99.90;;;;;;4978161;28;20164;-78
2022/08/08 05:51:32;;;;;;;0.30;0.30;;;22.50;99.90;;;;;;4976169;28;20064;-79
2022/08/08 05:53:58;;;;;;;0.40;0.40;;;22.40;99.90;;;;;;4975593;28;20049;-78
2022/08/08 05:56:26;;;;;;;0.50;0.50;;;20.70;99.90;;;;;;4973338;28;20057;-78
2022/08/08 05:59:14;;;;;;;0.30;0.30;;;19.70;99.90;;;;;;4974960;28;20054;-79
2022/08/08 06:01:44;;;;;;;0.40;0.40;;;19.30;99.90;;;;;;4987829;28;20457;-78
2022/08/08 06:04:10;;;;;;;0.40;0.40;;;19.30;99.90;;;;;;4977849;28;20647;-79
2022/08/08 06:06:39;;;;;;;0.30;0.30;;;19.20;99.90;;;;;;4984064;28;20135;-79
2022/08/08 06:09:08;;;;;;;0.30;0.30;;;19.20;99.90;;;;;;4988513;28;20058;-78
2022/08/08 06:11:34;;;;;;;0.30;0.30;;;19.10;99.90;;;;;;4978538;28;20545;-79
2022/08/08 06:14:04;;;;;;;0.35;0.35;;;19.20;99.90;;;;;;4970144;28;20053;-79
2022/08/08 06:16:37;;;;;;;0.30;0.30;;;19.40;99.90;;;;;;4975383;28;20050;-78
2022/08/08 06:19:03;;;;;;;0.30;0.30;;;19.30;99.90;;;;;;4973257;28;20054;-79
2022/08/08 06:21:30;;;;;;;0.30;0.30;;;19.40;99.90;;;;;;4972632;28;20038;-78
2022/08/08 06:23:56;;;;;;;0.30;0.30;;;19.70;99.90;;;;;;4971172;28;20046;-79
2022/08/08 06:26:29;;;;;;;0.30;0.30;;;19.80;99.90;;;;;;4976679;28;20050;-78
2022/08/08 06:29:05;;;;;;;0.30;0.30;;;19.80;99.90;;;;;;4968291;28;21208;-78
2022/08/08 06:31:36;;;;;;;0.30;0.30;;;20.00;99.90;;;;;;4974697;28;20748;-79
2022/08/08 06:34:05;;;;;;;0.30;0.30;;;20.00;99.90;;;;;;4990363;28;21206;-78
2022/08/08 06:36:34;;;;;;;0.30;0.30;;;20.20;99.90;;;;;;4973121;28;20087;-79
2022/08/08 06:39:01;;;;;;;0.30;0.30;;;20.30;99.90;;;;;;4993274;28;20520;-79
2022/08/08 06:41:31;;;;;;;0.30;0.30;;;20.30;99.90;;;;;;4975998;28;20123;-80
2022/08/08 06:44:02;;;;;;;0.30;0.30;;;20.50;99.90;;;;;;4975400;28;20591;-80
2022/08/08 06:46:28;;;;;;;0.30;0.30;;;20.40;99.90;;;;;;4973047;28;20061;-81
2022/08/08 06:48:55;;;;;;;0.30;0.30;;;20.40;99.90;;;;;;4971274;28;20050;-79
2022/08/08 06:51:22;;;;;;;0.30;0.30;;;20.50;99.90;;;;;;4972899;28;20053;-80
2022/08/08 06:53:49;;;;;;;0.30;0.30;;;20.50;99.90;;;;;;4973717;28;20153;-79
2022/08/08 06:56:15;;;;;;;0.30;0.30;;;20.70;99.90;;;;;;4971005;28;20152;-79
2022/08/08 06:58:41;;;;;;;0.30;0.30;;;20.70;99.90;;;;;;4974863;28;20062;-79
2022/08/08 07:01:09;;;;;;;0.30;0.30;;;20.80;99.90;;;;;;4977959;28;20050;-80
2022/08/08 07:03:55;;;;;;;0.30;0.30;;;20.80;99.90;;;;;;4972864;28;20145;-79
2022/08/08 07:06:22;;;;;;;0.20;0.20;;;20.90;99.90;;;;;;4978200;28;20068;-80
2022/08/08 07:08:55;;;;;;;0.30;0.30;;;21.00;99.90;;;;;;4976088;28;20526;-80
2022/08/08 07:11:27;;;;;;;0.30;0.30;;;21.20;99.90;;;;;;4973714;28;20049;-80
2022/08/08 07:13:58;;;;;;;0.30;0.30;;;21.00;99.90;;;;;;4977794;28;20050;-80
2022/08/08 07:17:03;;;;;;;0.30;0.30;;;21.30;99.90;;;;;;4978507;28;20081;-80
2022/08/08 07:19:59;;;;;;;0.30;0.30;;;21.00;99.90;;;;;;4948432;28;20046;-79
2022/08/08 07:22:37;;;;;;;0.30;0.30;;;21.40;99.90;;;;;;4955740;28;20065;-80
2022/08/08 07:25:04;;;;;;;0.20;0.20;;;21.50;99.90;;;;;;4953157;28;20768;-79
2022/08/08 07:27:44;;;;;;;0.30;0.30;;;21.50;99.90;;;;;;4971720;28;20054;-80
2022/08/08 07:30:11;;;;;;;0.30;0.30;;;21.50;99.90;;;;;;4972369;28;20057;-79
2022/08/08 07:32:38;;;;;;;0.30;0.30;;;21.70;99.90;;;;;;4972629;28;20104;-81
2022/08/08 07:35:05;;;;;;;0.30;0.30;;;21.70;99.90;;;;;;4974763;28;20046;-80
2022/08/08 07:37:33;;;;;;;0.20;0.20;;;21.70;99.90;;;;;;4975850;28;20054;-79
2022/08/08 07:40:00;;;;;;;0.30;0.30;;;21.80;99.90;;;;;;4973383;28;20157;-78
2022/08/08 07:42:29;;;;;;;0.30;0.30;;;21.70;99.90;;;;;;4972998;28;20045;-78
2022/08/08 07:44:55;;;;;;;0.30;0.30;;;21.70;99.90;;;;;;4969872;28;20409;-79
2022/08/08 07:47:21;;;;;;;0.20;0.20;;;21.70;99.90;;;;;;4968382;28;20049;-79
2022/08/08 07:49:47;;;;;;;0.30;0.30;;;21.80;99.90;;;;;;4955294;28;20046;-79
2022/08/08 07:52:14;;;;;;;0.30;0.30;;;21.80;99.90;;;;;;4957718;28;20135;-80
2022/08/08 07:54:55;;;;;;;0.30;0.30;;;21.70;99.90;;;;;;4972199;28;20168;-78
2022/08/08 07:57:33;;;;;;;0.30;0.30;;;21.50;99.90;;;;;;4978551;28;20660;-80
2022/08/08 08:00:06;;;;;;;0.30;0.30;;;22.00;99.90;;;;;;4995017;28;20658;-80
2022/08/08 08:02:42;;;;;;;0.30;0.30;;;22.30;99.90;;;;;;4988057;28;20088;-80
2022/08/08 08:05:25;;;;;;;0.20;0.20;;;22.40;99.90;;;;;;4970770;28;20720;-80
2022/08/08 08:08:01;;;;;;;0.30;0.30;;;22.40;99.90;;;;;;4971593;28;20054;-80
2022/08/08 08:10:28;;;;;;;0.30;0.30;;;22.60;99.90;;;;;;4975039;28;20058;-80
2022/08/08 08:13:19;;;;;;;0.30;0.30;;;22.30;99.90;;;;;;4974544;28;20062;-82
2022/08/08 08:15:49;;;;;;;0.30;0.30;;;22.20;99.90;;;;;;4979406;28;20509;-79
2022/08/08 08:18:17;;;;;;;0.30;0.30;;;22.30;99.90;;;;;;4976977;28;20053;-79
2022/08/08 08:20:44;;;;;;;0.30;0.30;;;22.20;99.90;;;;;;4982277;28;20043;-80
2022/08/08 08:23:10;;;;;;;0.30;0.30;;;22.30;99.90;;;;;;4986176;28;20054;-81
2022/08/08 08:25:36;;;;;;;0.30;0.30;;;22.40;99.90;;;;;;4976791;28;20144;-80
2022/08/08 08:28:01;;;;;;;0.30;0.30;;;21.90;99.90;;;;;;4973945;28;20082;-80
2022/08/08 08:30:27;;;;;;;0.30;0.30;;;21.70;99.90;;;;;;4974900;28;20046;-80
2022/08/08 08:32:53;;;;;;;0.40;0.30;;;21.70;99.90;;;;;;4974577;28;20094;-79
2022/08/08 08:35:19;;;;;;;0.30;0.30;;;21.70;99.90;;;;;;4976655;28;20538;-81
2022/08/08 08:37:45;;;;;;;0.30;0.30;;;21.90;99.90;;;;;;4980832;28;20046;-79
2022/08/08 08:40:12;;;;;;;0.30;0.30;;;22.30;99.90;;;;;;4974784;28;20042;-81
2022/08/08 08:42:39;;;;;;;0.20;0.20;;;22.60;99.90;;;;;;4977332;28;20085;-79
2022/08/08 08:45:06;;;;;;;0.28;0.28;;;22.80;99.90;;;;;;4986038;28;20475;-81
2022/08/08 08:47:33;;;;;;;0.30;0.30;;;22.50;99.90;;;;;;4975887;28;20050;-79
2022/08/08 08:49:59;;;;;;;0.30;0.30;;;22.60;99.90;;;;;;4975087;28;20054;-81
2022/08/08 08:52:25;;;;;;;0.30;0.30;;;22.70;99.90;;;;;;4961317;28;20046;-80
2022/08/08 08:54:55;;;;;;;0.20;0.20;;;22.40;99.90;;;;;;4978084;28;20069;-80
2022/08/08 08:57:22;;;;;;;0.30;0.30;;;22.60;99.90;;;;;;4994697;28;20065;-81
2022/08/08 08:59:53;;;;;;;0.30;0.30;;;22.70;99.90;;;;;;4979470;28;20454;-81
2022/08/08 09:02:23;;;;;;;0.30;0.30;;;22.90;99.90;;;;;;4979633;28;20069;-81
2022/08/08 09:04:54;;;;;;;0.30;0.30;;;23.00;99.90;;;;;;4980340;28;20587;-80
2022/08/08 09:07:23;;;;;;;0.30;0.30;;;23.40;99.90;;;;;;4976875;28;20184;-79
2022/08/08 09:09:52;;;;;;;0.22;0.22;;;23.30;99.90;;;;;;4973810;28;20069;-79
2022/08/08 09:12:21;;;;;;;0.30;0.30;;;23.60;99.90;;;;;;4975980;28;20053;-82
2022/08/08 09:14:55;;;;;;;0.20;0.20;;;23.40;99.90;;;;;;4977020;28;20046;-80
2022/08/08 09:17:25;;;;;;;0.25;0.25;;;23.00;99.90;;;;;;4972127;28;20129;-81
2022/08/08 09:19:54;;;;;;;0.30;0.30;;;23.10;99.90;;;;;;4967636;28;20081;-80
2022/08/08 09:22:26;;;;;;;0.30;0.30;;;23.30;99.90;;;;;;4976445;28;20148;-79
2022/08/08 09:24:54;;;;;;;0.30;0.30;;;23.80;99.90;;;;;;4971759;28;20054;-80
2022/08/08 09:27:20;;;;;;;0.20;0.20;;;24.00;99.90;;;;;;4960190;28;20050;-80
2022/08/08 09:29:46;;;;;;;0.30;0.30;;;24.30;99.90;;;;;;4971403;28;20248;-80
2022/08/08 09:32:16;;;;;;;0.20;0.20;;;24.60;99.90;;;;;;4969770;28;20673;-79
2022/08/08 09:34:48;;;;;;;0.25;0.25;;;24.90;99.90;;;;;;4972410;28;20609;-82
2022/08/08 09:37:17;;;;;;;0.30;0.30;;;24.90;99.90;;;;;;4972391;28;20460;-82
2022/08/08 09:39:59;;;;;;;0.20;0.20;;;25.20;99.90;;;;;;4971581;28;20101;-82
2022/08/08 09:42:35;;;;;;;0.20;0.20;;;25.20;99.90;;;;;;4968935;28;20133;-80
2022/08/08 09:45:27;;;;;;;0.20;0.20;;;23.40;99.90;;;;;;4969121;28;20100;-81
2022/08/08 09:47:53;;;;;;;0.25;0.25;;;24.60;99.90;;;;;;4966885;28;20056;-82
2022/08/08 09:50:22;;;;;;;0.20;0.20;;;24.50;99.90;;;;;;4967718;28;20046;-81
2022/08/08 09:52:53;;;;;;;0.22;0.22;;;24.80;99.90;;;;;;4973004;28;20076;-80
2022/08/08 09:55:20;;;;;;;0.30;0.30;;;24.60;99.90;;;;;;4961532;28;20673;-82
2022/08/08 09:57:56;;;;;;;0.30;0.30;;;24.00;99.90;;;;;;4975411;28;20054;-81
2022/08/08 10:00:24;;;;;;;0.20;0.20;;;23.40;99.90;;;;;;4972539;28;20245;-82
2022/08/08 10:03:02;;;;;;;0.20;0.20;;;22.90;99.90;;;;;;4971532;28;20060;-81
2022/08/08 10:05:33;;;;;;;0.25;0.25;;;23.70;99.90;;;;;;4972824;28;20061;-79
2022/08/08 10:08:00;;;;;;;0.20;0.20;;;23.90;99.90;;;;;;4969433;28;20085;-81
2022/08/08 10:10:34;;;;;;;0.30;0.30;;;24.20;99.90;;;;;;4972878;28;20054;-82
2022/08/08 10:13:21;;;;;;;0.25;0.25;;;24.30;99.90;;;;;;4973284;28;20042;-80
2022/08/08 10:15:49;;;;;;;0.30;0.30;;;24.80;99.90;;;;;;4970401;28;20051;-81
2022/08/08 10:18:32;;;;;;;0.20;0.20;;;25.20;99.90;;;;;;4970858;28;20105;-80
2022/08/08 10:21:04;;;;;;;0.20;0.20;;;24.00;99.90;;;;;;4970622;28;20442;-81
2022/08/08 10:23:46;;;;;;;0.20;0.20;;;24.00;99.90;;;;;;4973237;28;20089;-81
2022/08/08 10:26:35;;;;;;;0.20;0.20;;;23.70;99.90;;;;;;4966134;28;20049;-81
2022/08/08 10:29:09;;;;;;;0.20;0.20;;;23.80;99.90;;;;;;4960468;28;20169;-80
2022/08/08 10:34:24;;;;;;;0.30;0.30;;;24.20;99.90;;;;;;4965364;28;20155;-81
2022/08/08 10:36:51;;;;;;;0.20;0.20;;;25.00;99.90;;;;;;4982005;28;21005;-80
2022/08/08 10:39:19;;;;;;;0.30;0.30;;;24.90;99.90;;;;;;4970750;28;20062;-81
2022/08/08 10:41:55;;;;;;;0.30;0.30;;;24.60;99.90;;;;;;4968486;28;20054;-81
2022/08/08 10:44:35;;;;;;;0.20;0.20;;;24.50;99.90;;;;;;4976447;28;20579;-82
2022/08/08 10:47:19;;;;;;;0.20;0.20;;;24.20;99.90;;;;;;4984891;28;20104;-80
2022/08/08 10:49:53;;;;;;;0.20;0.20;;;24.10;99.90;;;;;;4971654;28;20488;-82
2022/08/08 10:52:35;;;;;;;0.20;0.20;;;24.40;99.90;;;;;;4957051;28;20587;-81
2022/08/08 10:55:06;;;;;;;0.20;0.20;;;25.10;99.90;;;;;;4956701;28;20082;-82
2022/08/08 10:57:40;;;;;;;0.20;0.20;;;24.80;99.90;;;;;;4954838;28;20507;-81
2022/08/08 11:00:09;;;;;;;0.20;0.20;;;25.00;99.90;;;;;;4969330;28;20166;-83
2022/08/08 11:02:35;;;;;;;0.20;0.20;;;24.80;99.90;;;;;;4959668;28;20057;-81
2022/08/08 11:05:04;;;;;;;0.20;0.20;;;25.10;99.90;;;;;;4953247;28;20050;-80
2022/08/08 11:07:32;;;;;;;0.20;0.20;;;25.10;99.90;;;;;;4957373;28;20717;-81
2022/08/08 11:10:03;;;;;;;0.20;0.20;;;24.80;99.90;;;;;;4957034;28;20077;-82
2022/08/08 11:12:30;;;;;;;0.22;0.22;;;24.60;99.90;;;;;;4937729;28;20050;-79
2022/08/08 11:15:01;;;;;;;0.20;0.20;;;24.60;99.90;;;;;;4950660;28;20065;-82
2022/08/08 11:17:30;;;;;;;0.30;0.30;;;24.60;99.90;;;;;;4954511;28;20053;-80
2022/08/08 11:19:57;;;;;;;0.30;0.30;;;24.80;99.90;;;;;;4954818;28;20532;-81
2022/08/08 11:22:26;;;;;;;0.30;0.30;;;24.80;99.90;;;;;;4949097;28;20053;-81
2022/08/08 11:24:54;;;;;;;0.30;0.30;;;24.80;99.90;;;;;;4949391;28;20413;-81
2022/08/08 11:27:24;;;;;;;0.30;0.30;;;24.70;99.90;;;;;;4949906;28;20042;-80
2022/08/08 11:29:52;;;;;;;0.20;0.20;;;24.50;99.90;;;;;;4948787;28;20240;-82
2022/08/08 11:32:21;;;;;;;0.20;0.20;;;24.20;99.90;;;;;;4949656;28;20129;-83
2022/08/08 11:34:54;;;;;;;0.20;0.20;;;24.60;99.90;;;;;;4947189;28;20133;-82
2022/08/08 11:37:21;;;;;;;0.30;0.30;;;24.50;99.90;;;;;;4943611;28;20537;-83
2022/08/08 11:39:49;;;;;;;0.30;0.30;;;25.10;99.90;;;;;;4945868;28;20881;-83
2022/08/08 11:42:16;;;;;;;0.20;0.20;;;24.70;99.90;;;;;;4936273;28;20054;-82
2022/08/08 11:44:44;;;;;;;0.30;0.30;;;25.70;99.90;;;;;;4943500;28;20129;-81
2022/08/08 11:47:11;;;;;;;0.22;0.22;;;25.50;99.90;;;;;;4955836;28;20049;-83
2022/08/08 11:49:39;;;;;;;0.30;0.30;;;25.70;99.90;;;;;;4953890;28;20046;-82
2022/08/08 11:52:06;;;;;;;0.30;0.30;;;26.10;99.90;;;;;;4957225;28;20047;-81
2022/08/08 11:54:34;;;;;;;0.20;0.20;;;26.40;99.90;;;;;;4952724;28;20072;-80
2022/08/08 11:57:11;;;;;;;0.20;0.20;;;26.40;99.90;;;;;;4949402;28;20054;-80
2022/08/08 11:59:43;;;;;;;0.20;0.20;;;26.60;99.90;;;;;;4950124;28;20054;-80
2022/08/08 12:02:09;;;;;;;0.30;0.30;;;26.00;99.50;;;;;;4951184;28;20077;-81
2022/08/08 12:04:37;;;;;;;0.30;0.30;;;26.10;99.90;;;;;;4966318;28;20699;-82
2022/08/08 12:07:04;;;;;;;0.20;0.20;;;26.10;99.90;;;;;;4964779;28;20970;-80
2022/08/08 12:09:30;;;;;;;0.20;0.20;;;25.20;99.90;;;;;;4969582;28;20172;-80
2022/08/08 12:11:57;;;;;;;0.20;0.20;;;25.80;99.90;;;;;;4971092;28;20062;-82
2022/08/08 12:14:24;;;;;;;0.20;0.20;;;25.50;99.90;;;;;;4968800;28;20060;-82
2022/08/08 12:16:52;;;;;;;0.20;0.20;;;26.50;99.90;;;;;;4973013;28;20096;-80
2022/08/08 12:19:19;;;;;;;0.20;0.20;;;26.60;99.60;;;;;;4970529;28;20411;-81
2022/08/08 12:21:45;;;;;;;0.30;0.30;;;26.80;98.40;;;;;;4964280;28;20085;-81
2022/08/08 12:24:19;;;;;;;0.20;0.20;;;27.20;99.60;;;;;;4972334;28;20133;-81
2022/08/08 12:26:48;;;;;;;0.20;0.20;;;26.90;98.90;;;;;;4971691;28;20050;-80
2022/08/08 12:29:28;;;;;;;0.30;0.30;;;27.40;99.90;;;;;;4970335;28;20042;-79
2022/08/08 12:32:11;;;;;;;0.30;0.30;;;27.30;99.80;;;;;;4987333;28;20112;-80
2022/08/08 12:34:43;;;;;;;0.30;0.30;;;26.30;98.90;;;;;;4972413;28;20053;-78
2022/08/08 12:37:18;;;;;;;0.30;0.30;;;26.60;99.90;;;;;;4971282;28;20065;-81
2022/08/08 12:39:44;;;;;;;0.20;0.20;;;26.00;99.90;;;;;;4958408;28;20306;-81
2022/08/08 12:42:10;;;;;;;0.20;0.20;;;25.70;99.90;;;;;;4973615;28;20494;-80
2022/08/08 12:44:39;;;;;;;0.30;0.30;;;25.40;99.90;;;;;;4977984;28;20112;-80
2022/08/08 12:47:06;;;;;;;0.30;0.30;;;25.20;99.90;;;;;;4961802;28;20847;-81
2022/08/08 12:49:34;;;;;;;0.30;0.30;;;25.30;99.90;;;;;;4975467;28;20129;-81
2022/08/08 12:52:01;;;;;;;0.30;0.30;;;25.30;99.90;;;;;;4978948;28;20050;-82
2022/08/08 12:54:36;;;;;;;0.30;0.30;;;25.10;99.90;;;;;;4974868;28;20066;-81
2022/08/08 12:57:34;;;;;;;0.30;0.30;;;25.70;99.90;;;;;;4977313;28;20050;-80
2022/08/08 13:00:00;;;;;;;0.20;0.20;;;25.40;99.90;;;;;;4952781;28;20786;-78
2022/08/08 13:02:32;;;;;;;0.30;0.30;;;25.60;99.90;;;;;;4976712;28;20050;-81
2022/08/08 13:05:01;;;;;;;0.30;0.30;;;25.30;99.90;;;;;;4975818;28;20116;-80
2022/08/08 13:07:41;;;;;;;0.20;0.20;;;26.50;99.90;;;;;;4973824;28;20152;-81
2022/08/08 13:10:13;;;;;;;0.30;0.30;;;27.00;99.90;;;;;;4982754;28;20058;-82
2022/08/08 13:12:42;;;;;;;0.30;0.30;;;26.90;99.40;;;;;;4975221;28;20050;-80
2022/08/08 13:15:11;;;;;;;0.30;0.30;;;27.00;99.00;;;;;;4968708;28;20484;-82
2022/08/08 13:17:37;;;;;;;0.30;0.30;;;27.10;98.80;;;;;;4971829;28;20058;-81
2022/08/08 13:20:10;;;;;;;0.30;0.30;;;25.90;98.20;;;;;;4967347;28;20100;-83
2022/08/08 13:22:36;;;;;;;0.20;0.20;;;26.00;99.90;;;;;;4972513;28;20132;-82
2022/08/08 13:25:19;;;;;;;0.30;0.30;;;25.90;98.30;;;;;;4972126;28;20045;-81
2022/08/08 13:27:52;;;;;;;0.30;0.30;;;26.40;98.80;;;;;;4977396;28;20054;-81
2022/08/08 13:30:22;;;;;;;0.30;0.30;;;27.00;99.90;;;;;;4974805;28;20048;-81